Terminal Aerodrome Forecast
Issued by NWS

Home | Current Version | Previous Version | Text Only | Print | Product List | Glossary On
Versions: 1 2 3 4 5 6 7 8 9 10 11 12 13 14 15 16 17 18 19 20 21 22 23 24 25 26 27 28 29 30 31 32 33 34 35 36 37 38 39 40 41 42 43 44 45 46 47 48 49 50
000
FTUS43 KPAH 031421 AAA
TAFOWB
TAF AMD
KOWB 031421Z 0314/0412 VRB02KT 5SM BR VCSH SCT004 BKN009
      TEMPO 0314/0317 2SM BR OVC002
     FM031700 VRB05KT P6SM BKN015
     FM031900 28007KT P6SM VCSH BKN025
      TEMPO 0319/0323 3SM -TSRA BR OVC015CB
     FM032300 32006KT P6SM SCT035 BKN100
     FM040800 35003KT 4SM BR SCT250=

USA.gov is the U.S. government's official web portal to all federal, state and local government web resources and services.